Amunt
Inicio > meteoXarxa
Fes-te'n soci

METEOXARXA

Ares del Maestrat
Ubicació
Comarca l′Alt Maestrat
Altitud (msnm) 976
Posició geogràfica 40° 30' 0.63" N, 00° 5' 57.21" W
Model Davis Vantage Pro2
Presa de dades
Font de les dades Weatherlink
Estadístiques. Resum
Data Temperatura (ºC) Humitat (%) Pressió (hPa) Vent (km/h) Precipit. (mm)
Mínima Mitjana Màxima Mínima Mitjana Màxima Mínima Mitjana Màxima Predom. Mitjana Ràfega màxima Total Dies de pluja
Mínima Mitjana Màxima Mínima Mitjana Màxima
Últimes dades diàries
24-02-2017 1,4     5,8     10,1 62,0 78,5 95,0 1.010,0 1.014,2 1.018,4 47,0 2,0  
23-02-2017 9,2     12,0     14,8 18,0 47,0 76,0 1.012,1 1.016,2 1.020,4 26,0 0,0  
22-02-2017 8,0     11,2     14,5 15,0 35,5 56,0 1.020,0 1.022,2 1.024,5 19,0 0,0  
21-02-2017 4,3     9,1     13,9 30,0 58,0 86,0 1.023,4 1.025,4 1.027,4 23,0 0,0  
20-02-2017 2,1     6,7     11,2 49,0 71,5 94,0 1.025,5 1.027,2 1.028,8 21,0 0,0  
19-02-2017 2,4     6,5     10,7 62,0 79,0 96,0 1.021,5 1.024,6 1.027,7 21,0 0,0  
18-02-2017 3,3     7,6     11,9 43,0 68,5 94,0 1.019,5 1.022,5 1.025,5 23,0 0,0  
17-02-2017 3,1     7,5     11,9 51,0 73,5 96,0 1.025,5 1.028,5 1.031,4 19,0 0,0  
16-02-2017 4,3     7,0     9,8 73,0 86,0 99,0 1.030,7 1.032,2 1.033,8 18,0 0,0  
15-02-2017 2,8     6,9     11,0 67,0 82,5 98,0 1.029,6 1.031,7 1.033,8 16,0 0,0  
14-02-2017 4,2     7,9     11,6 60,0 75,5 91,0 1.016,4 1.023,0 1.029,7 26,0 0,0  
13-02-2017 4,5     6,0     7,4 80,0 90,0 100,0 1.007,0 1.011,8 1.016,5 34,0 7,0  
12-02-2017 4,1     5,0     5,9 93,0 96,0 99,0 1.008,4 1.010,1 1.011,9 35,0 0,2  
11-02-2017 0,8     2,7     4,6 95,0 97,0 99,0 1.011,8 1.014,6 1.017,5 21,0 0,8  
10-02-2017 -0,3     2,9     6,1 57,0 77,5 98,0 1.015,1 1.016,4 1.017,7 21,0 0,0  
09-02-2017 -1,6     3,6     8,9 36,0 60,5 85,0 1.017,6 1.020,1 1.022,7 56,0 0,0  
08-02-2017 -1,1     1,4     3,8 60,0 77,5 95,0 1.013,2 1.017,6 1.022,1 79,0 1,0  
07-02-2017 2,2     7,0     11,8 65,0 80,0 95,0 1.016,1 1.019,5 1.022,9 56,0 4,2  
06-02-2017 1,7     5,4     9,1 58,0 68,0 78,0 1.016,9 1.020,4 1.023,9 84,0 0,0  
05-02-2017 1,5     6,0     10,4 49,0 69,5 90,0 1.005,0 1.012,1 1.019,2 95,0 0,6  
04-02-2017 7,7     10,1     12,4 57,0 66,5 76,0 1.010,4 1.012,6 1.014,9 61,0 0,0  
03-02-2017 4,0     7,7     11,4 51,0 64,5 78,0 1.012,6 1.015,3 1.018,0 79,0 0,2  
30-01-2017 -0,4     -0,2     0,1 87,0 87,5 88,0 1.021,3 1.021,6 1.022,0 26,0 0,0  
29-01-2017 -0,4     -0,2     0,1 87,0 87,5 88,0 1.021,3 1.021,6 1.022,0 26,0 0,0  
28-01-2017 -0,4     -0,2     0,1 87,0 87,5 88,0 1.021,3 1.021,6 1.022,0 26,0 0,0  
27-01-2017 -0,4     -0,2     0,1 87,0 87,5 88,0 1.021,3 1.021,6 1.022,0 26,0 0,0  
26-01-2017 -0,4     -0,2     0,1 87,0 87,5 88,0 1.021,3 1.021,6 1.022,0 26,0 0,0  
25-01-2017 -0,4     -0,2     0,1 87,0 87,5 88,0 1.021,3 1.021,6 1.022,0 26,0 0,0  
24-01-2017 -0,4     -0,2     0,1 87,0 87,5 88,0 1.021,3 1.021,6 1.022,0 26,0 0,0  
23-01-2017 -1,5     -0,1     1,3 88,0 94,0 100,0 1.018,7 1.020,4 1.022,1 29,0 9,6  
22-01-2017 -1,2     -0,6     0,1 99,0 99,5 100,0 1.017,2 1.018,8 1.020,3 18,0 0,8  
21-01-2017 -0,9     -0,4     0,1 99,0 99,0 99,0 1.018,4 1.020,0 1.021,5 21,0 0,2  
Dades del mes en curs (actualitzades fins l'últim dia disponible)
02/2017 -1,6 3,1 9,2 6,6 3,8 10,1 14,8 15,0 72,8 100,0 1.005,0 1.019,9 1.033,8   95,0 16,0  
Últimes dades mensuals
12/2016 -0,3 4,4 10,1 7,5 1,4 10,7 18,9 17,5 75,9 99,5 1.015,1 1.029,4 1.037,1 45,0 76,2 9
08/2016 8,4 15,8 19,7 21,0 21,1 26,2 30,0 55,0 64,3 85,0 1.009,8 1.017,8 1.023,9 35,0 10,0 5
07/2016 8,2 16,5 21,8 21,5 22,3 26,4 31,7 46,5 58,7 80,5 1.012,0 1.016,7 1.022,1 48,0 1,6 2
06/2016 6,8 13,1 18,8 17,8 14,4 22,5 27,5 39,0 62,2 79,0 1.002,3 1.015,6 1.025,0 50,0 47,6 10
05/2016 0,1 7,9 14,7 12,2 9,1 16,6 22,1 39,5 69,6 100,0 1.005,9 1.014,8 1.024,0 58,0 30,8 9
04/2016 -0,1 5,1 10,9 9,1 6,3 13,2 18,1 56,5 71,3 99,5 1.007,0 1.014,0 1.020,3 63,0 48,2 12
03/2016 -1,6 2,3 10,0 6,1 3,1 9,9 18,8 50,5 71,7 99,5 1.003,0 1.015,2 1.026,6 71,0 30,2 13
02/2016 -4,5 2,5 9,0 6,3 3,2 10,1 16,6 43,0 66,6 92,0 990,6 1.017,3 1.036,0 82,0 19,4 8
01/2016 -2,4 4,3 9,4 7,6 3,2 11,0 16,6 53,0 69,4 89,0 1.003,4 1.020,7 1.033,0 69,0 5,8 9
Dades de l'any en curs (actualitzades fins l'últim dia disponible)
2017 -8,0 1,4 9,2 4,3 -2,1 7,3 16,3 15,0 73,8 100,0 1.005,0 1.021,1 1.033,8   95,0 30,0  
Últimes dades anuals